sensor_id;sensor_type;location;lat;lon;timestamp;pressure;altitude;pressure_sealevel;temperature;humidity
21869;BME280;11099;41.564;23.296;2023-04-20T00:02:18;97208.47;;;11.24;100.00
21869;BME280;11099;41.564;23.296;2023-04-20T00:04:45;97283.03;;;11.42;100.00
21869;BME280;11099;41.564;23.296;2023-04-20T00:07:11;97186.78;;;10.62;100.00
21869;BME280;11099;41.564;23.296;2023-04-20T00:09:37;97268.13;;;11.58;100.00
21869;BME280;11099;41.564;23.296;2023-04-20T00:12:03;97329.41;;;11.93;99.55
21869;BME280;11099;41.564;23.296;2023-04-20T00:14:28;97211.56;;;11.35;97.94
21869;BME280;11099;41.564;23.296;2023-04-20T00:16:54;97307.31;;;11.83;98.58
21869;BME280;11099;41.564;23.296;2023-04-20T00:19:20;97298.38;;;11.71;99.04
21869;BME280;11099;41.564;23.296;2023-04-20T00:21:47;97248.34;;;11.59;97.46
21869;BME280;11099;41.564;23.296;2023-04-20T00:24:13;97260.66;;;11.25;99.28
21869;BME280;11099;41.564;23.296;2023-04-20T00:26:38;97323.84;;;12.06;96.87
21869;BME280;11099;41.564;23.296;2023-04-20T00:29:04;97306.66;;;11.69;98.12
21869;BME280;11099;41.564;23.296;2023-04-20T00:31:30;97243.59;;;11.18;97.70
21869;BME280;11099;41.564;23.296;2023-04-20T00:33:56;97206.16;;;10.97;97.25
21869;BME280;11099;41.564;23.296;2023-04-20T00:36:21;97271.94;;;11.14;97.31
21869;BME280;11099;41.564;23.296;2023-04-20T00:38:46;97221.81;;;11.07;97.68
21869;BME280;11099;41.564;23.296;2023-04-20T00:41:12;97304.25;;;12.02;95.42
21869;BME280;11099;41.564;23.296;2023-04-20T00:43:48;97253.25;;;11.48;95.01
21869;BME280;11099;41.564;23.296;2023-04-20T00:46:14;97218.91;;;11.47;95.24
21869;BME280;11099;41.564;23.296;2023-04-20T00:48:41;97254.56;;;11.89;94.55
21869;BME280;11099;41.564;23.296;2023-04-20T00:51:06;97231.63;;;11.50;96.24
21869;BME280;11099;41.564;23.296;2023-04-20T00:53:32;97299.34;;;12.13;95.64
21869;BME280;11099;41.564;23.296;2023-04-20T00:55:58;97290.94;;;11.94;96.57
21869;BME280;11099;41.564;23.296;2023-04-20T00:58:23;97230.38;;;11.39;97.39
21869;BME280;11099;41.564;23.296;2023-04-20T01:00:49;97266.19;;;11.84;98.36
21869;BME280;11099;41.564;23.296;2023-04-20T01:03:15;97149.28;;;11.10;99.69
21869;BME280;11099;41.564;23.296;2023-04-20T01:05:40;97159.66;;;10.94;98.92
21869;BME280;11099;41.564;23.296;2023-04-20T01:08:06;97273.06;;;11.94;99.12
21869;BME280;11099;41.564;23.296;2023-04-20T01:10:31;97246.56;;;11.80;98.07
21869;BME280;11099;41.564;23.296;2023-04-20T01:12:57;97280.75;;;11.96;99.76
21869;BME280;11099;41.564;23.296;2023-04-20T01:15:23;97228.09;;;11.67;99.59
21869;BME280;11099;41.564;23.296;2023-04-20T01:17:48;97206.81;;;11.58;99.11
21869;BME280;11099;41.564;23.296;2023-04-20T01:20:14;97220.94;;;11.97;98.41
21869;BME280;11099;41.564;23.296;2023-04-20T01:22:44;97298.16;;;12.31;98.16
21869;BME280;11099;41.564;23.296;2023-04-20T01:25:10;97234.97;;;11.76;99.44
21869;BME280;11099;41.564;23.296;2023-04-20T01:27:35;97283.75;;;11.77;100.00
21869;BME280;11099;41.564;23.296;2023-04-20T01:30:01;97221.81;;;11.07;100.00
21869;BME280;11099;41.564;23.296;2023-04-20T01:32:26;97222.88;;;11.32;100.00
21869;BME280;11099;41.564;23.296;2023-04-20T01:34:52;97235.59;;;11.26;100.00
21869;BME280;11099;41.564;23.296;2023-04-20T01:37:17;97293.31;;;11.78;100.00
21869;BME280;11099;41.564;23.296;2023-04-20T01:39:43;97244.06;;;11.84;100.00
21869;BME280;11099;41.564;23.296;2023-04-20T01:42:09;97194.75;;;11.52;100.00
21869;BME280;11099;41.564;23.296;2023-04-20T01:44:35;97153.81;;;11.56;100.00
21869;BME280;11099;41.564;23.296;2023-04-20T01:47:00;97201.16;;;11.59;100.00
21869;BME280;11099;41.564;23.296;2023-04-20T01:49:26;97232.63;;;11.83;100.00
21869;BME280;11099;41.564;23.296;2023-04-20T01:51:51;97183.19;;;11.39;100.00
21869;BME280;11099;41.564;23.296;2023-04-20T01:54:17;97223.84;;;11.83;100.00
21869;BME280;11099;41.564;23.296;2023-04-20T01:56:42;97265.03;;;12.32;100.00
21869;BME280;11099;41.564;23.296;2023-04-20T01:59:08;97218.78;;;11.43;100.00
21869;BME280;11099;41.564;23.296;2023-04-20T02:01:33;97194.13;;;11.55;100.00
21869;BME280;11099;41.564;23.296;2023-04-20T02:03:59;97237.03;;;11.71;100.00
21869;BME280;11099;41.564;23.296;2023-04-20T02:06:25;97174.50;;;11.13;100.00
21869;BME280;11099;41.564;23.296;2023-04-20T02:08:50;97261.00;;;11.79;100.00
21869;BME280;11099;41.564;23.296;2023-04-20T02:11:16;97285.97;;;12.22;100.00
21869;BME280;11099;41.564;23.296;2023-04-20T02:13:41;97182.25;;;11.35;100.00
21869;BME280;11099;41.564;23.296;2023-04-20T02:16:06;97259.63;;;12.41;100.00
21869;BME280;11099;41.564;23.296;2023-04-20T02:18:32;97230.00;;;12.34;100.00
21869;BME280;11099;41.564;23.296;2023-04-20T02:20:59;97246.81;;;12.34;100.00
21869;BME280;11099;41.564;23.296;2023-04-20T02:23:24;97264.00;;;12.46;100.00
21869;BME280;11099;41.564;23.296;2023-04-20T02:25:50;97233.50;;;11.96;100.00
21869;BME280;11099;41.564;23.296;2023-04-20T02:28:16;97248.97;;;12.62;100.00
21869;BME280;11099;41.564;23.296;2023-04-20T02:30:41;97166.09;;;11.87;99.82
21869;BME280;11099;41.564;23.296;2023-04-20T02:33:07;97263.13;;;12.83;99.04
21869;BME280;11099;41.564;23.296;2023-04-20T02:35:33;97181.31;;;12.16;99.43
21869;BME280;11099;41.564;23.296;2023-04-20T02:37:58;97160.56;;;12.43;98.19
21869;BME280;11099;41.564;23.296;2023-04-20T02:40:23;97194.13;;;12.23;97.98
21869;BME280;11099;41.564;23.296;2023-04-20T02:42:49;97173.06;;;12.00;98.40
21869;BME280;11099;41.564;23.296;2023-04-20T02:45:15;97207.63;;;11.50;100.00
21869;BME280;11099;41.564;23.296;2023-04-20T02:47:40;97288.84;;;12.08;100.00
21869;BME280;11099;41.564;23.296;2023-04-20T02:50:06;97204.28;;;11.06;100.00
21869;BME280;11099;41.564;23.296;2023-04-20T02:52:33;97262.31;;;11.56;100.00
21869;BME280;11099;41.564;23.296;2023-04-20T02:54:58;97167.66;;;10.86;100.00
21869;BME280;11099;41.564;23.296;2023-04-20T02:57:24;97196.28;;;11.06;100.00
21869;BME280;11099;41.564;23.296;2023-04-20T02:59:50;97225.13;;;10.78;100.00
21869;BME280;11099;41.564;23.296;2023-04-20T03:02:16;97280.06;;;11.52;100.00
21869;BME280;11099;41.564;23.296;2023-04-20T03:04:41;97217.09;;;11.21;100.00
21869;BME280;11099;41.564;23.296;2023-04-20T03:07:07;97273.44;;;11.67;100.00
21869;BME280;11099;41.564;23.296;2023-04-20T03:09:34;97196.75;;;11.08;100.00
21869;BME280;11099;41.564;23.296;2023-04-20T03:12:00;97230.09;;;11.14;100.00
21869;BME280;11099;41.564;23.296;2023-04-20T03:14:26;97128.84;;;10.50;100.00
21869;BME280;11099;41.564;23.296;2023-04-20T03:16:52;97295.63;;;11.24;100.00
21869;BME280;11099;41.564;23.296;2023-04-20T03:19:17;97226.84;;;10.91;100.00
21869;BME280;11099;41.564;23.296;2023-04-20T03:21:44;97192.69;;;10.93;100.00
21869;BME280;11099;41.564;23.296;2023-04-20T03:24:09;97191.63;;;10.68;100.00
21869;BME280;11099;41.564;23.296;2023-04-20T03:26:35;97249.94;;;11.60;100.00
21869;BME280;11099;41.564;23.296;2023-04-20T03:29:01;97165.78;;;10.51;100.00
21869;BME280;11099;41.564;23.296;2023-04-20T03:31:26;97185.19;;;10.35;100.00
21869;BME280;11099;41.564;23.296;2023-04-20T03:33:52;97201.78;;;10.40;100.00
21869;BME280;11099;41.564;23.296;2023-04-20T03:36:17;97155.78;;;10.40;100.00
21869;BME280;11099;41.564;23.296;2023-04-20T03:38:43;97216.66;;;10.76;100.00
21869;BME280;11099;41.564;23.296;2023-04-20T03:41:08;97200.06;;;10.53;100.00
21869;BME280;11099;41.564;23.296;2023-04-20T03:43:34;97204.28;;;10.80;100.00
21869;BME280;11099;41.564;23.296;2023-04-20T03:46:00;97183.78;;;10.54;100.00
21869;BME280;11099;41.564;23.296;2023-04-20T03:48:25;97204.75;;;10.65;100.00
21869;BME280;11099;41.564;23.296;2023-04-20T03:50:52;97236.09;;;10.94;100.00
21869;BME280;11099;41.564;23.296;2023-04-20T03:53:17;97262.06;;;11.14;100.00
21869;BME280;11099;41.564;23.296;2023-04-20T03:55:43;97299.34;;;11.40;100.00
21869;BME280;11099;41.564;23.296;2023-04-20T03:58:08;97239.81;;;11.27;100.00
21869;BME280;11099;41.564;23.296;2023-04-20T04:00:34;97231.97;;;11.31;100.00
21869;BME280;11099;41.564;23.296;2023-04-20T04:02:59;97313.03;;;12.03;100.00
21869;BME280;11099;41.564;23.296;2023-04-20T04:05:25;97304.66;;;11.57;100.00
21869;BME280;11099;41.564;23.296;2023-04-20T04:07:51;97213.06;;;11.06;100.00
21869;BME280;11099;41.564;23.296;2023-04-20T04:10:17;97312.00;;;11.69;100.00
21869;BME280;11099;41.564;23.296;2023-04-20T04:12:45;97306.53;;;11.83;100.00
21869;BME280;11099;41.564;23.296;2023-04-20T04:15:11;97318.28;;;11.73;100.00
21869;BME280;11099;41.564;23.296;2023-04-20T04:17:37;97326.44;;;11.68;100.00
21869;BME280;11099;41.564;23.296;2023-04-20T04:20:04;97261.13;;;11.27;100.00
21869;BME280;11099;41.564;23.296;2023-04-20T04:22:31;97243.16;;;10.90;100.00
21869;BME280;11099;41.564;23.296;2023-04-20T04:24:57;97341.94;;;11.75;100.00
21869;BME280;11099;41.564;23.296;2023-04-20T04:27:22;97257.16;;;11.51;100.00
21869;BME280;11099;41.564;23.296;2023-04-20T04:29:49;97246.56;;;11.25;100.00
21869;BME280;11099;41.564;23.296;2023-04-20T04:32:17;97239.03;;;11.27;100.00
21869;BME280;11099;41.564;23.296;2023-04-20T04:34:43;97271.53;;;11.84;100.00
21869;BME280;11099;41.564;23.296;2023-04-20T04:37:11;97279.25;;;11.60;100.00
21869;BME280;11099;41.564;23.296;2023-04-20T04:39:38;97328.56;;;12.48;100.00
21869;BME280;11099;41.564;23.296;2023-04-20T04:42:04;97281.75;;;12.21;100.00
21869;BME280;11099;41.564;23.296;2023-04-20T04:44:29;97336.13;;;12.37;100.00
21869;BME280;11099;41.564;23.296;2023-04-20T04:46:56;97363.88;;;12.45;100.00
21869;BME280;11099;41.564;23.296;2023-04-20T04:49:22;97294.84;;;12.05;100.00
21869;BME280;11099;41.564;23.296;2023-04-20T04:51:51;97318.75;;;12.31;100.00
21869;BME280;11099;41.564;23.296;2023-04-20T04:54:16;97297.69;;;12.29;100.00
21869;BME280;11099;41.564;23.296;2023-04-20T04:56:41;97329.28;;;12.57;100.00
21869;BME280;11099;41.564;23.296;2023-04-20T04:59:07;97263.94;;;12.33;100.00
21869;BME280;11099;41.564;23.296;2023-04-20T05:01:32;97277.56;;;12.02;100.00
21869;BME280;11099;41.564;23.296;2023-04-20T05:03:59;97314.34;;;11.88;100.00
21869;BME280;11099;41.564;23.296;2023-04-20T05:06:25;97242.22;;;11.67;100.00
21869;BME280;11099;41.564;23.296;2023-04-20T05:08:50;97260.88;;;11.67;100.00
21869;BME280;11099;41.564;23.296;2023-04-20T05:11:15;97313.94;;;12.16;100.00
21869;BME280;11099;41.564;23.296;2023-04-20T05:13:41;97301.66;;;11.76;100.00
21869;BME280;11099;41.564;23.296;2023-04-20T05:16:07;97220.03;;;11.37;100.00
21869;BME280;11099;41.564;23.296;2023-04-20T05:18:32;97320.66;;;12.51;100.00
21869;BME280;11099;41.564;23.296;2023-04-20T05:20:58;97240.44;;;11.80;100.00
21869;BME280;11099;41.564;23.296;2023-04-20T05:23:23;97252.56;;;12.16;99.80
21869;BME280;11099;41.564;23.296;2023-04-20T05:25:49;97269.03;;;12.68;99.25
21869;BME280;11099;41.564;23.296;2023-04-20T05:28:14;97353.66;;;13.48;97.21
21869;BME280;11099;41.564;23.296;2023-04-20T05:30:40;97308.84;;;13.44;97.13
21869;BME280;11099;41.564;23.296;2023-04-20T05:33:06;97277.84;;;13.31;97.82
21869;BME280;11099;41.564;23.296;2023-04-20T05:35:31;97340.91;;;14.11;96.90
21869;BME280;11099;41.564;23.296;2023-04-20T05:37:57;97277.78;;;13.97;94.46
21869;BME280;11099;41.564;23.296;2023-04-20T05:40:25;97299.47;;;16.06;85.44
21869;BME280;11099;41.564;23.296;2023-04-20T05:42:50;97249.56;;;16.56;80.61
21869;BME280;11099;41.564;23.296;2023-04-20T05:48:00;97268.13;;;17.16;74.78
21869;BME280;11099;41.564;23.296;2023-04-20T05:50:26;97296.63;;;17.39;74.27
21869;BME280;11099;41.564;23.296;2023-04-20T05:52:52;97350.31;;;17.32;76.62
21869;BME280;11099;41.564;23.296;2023-04-20T05:55:18;97280.34;;;17.13;76.05
21869;BME280;11099;41.564;23.296;2023-04-20T05:57:44;97330.16;;;17.42;74.54
21869;BME280;11099;41.564;23.296;2023-04-20T06:00:11;97349.69;;;17.39;75.12
21869;BME280;11099;41.564;23.296;2023-04-20T06:02:37;97306.41;;;17.28;75.25
21869;BME280;11099;41.564;23.296;2023-04-20T06:05:03;97292.41;;;17.38;74.64
21869;BME280;11099;41.564;23.296;2023-04-20T06:07:29;97339.97;;;17.54;74.71
21869;BME280;11099;41.564;23.296;2023-04-20T06:09:54;97344.44;;;17.46;75.18
21869;BME280;11099;41.564;23.296;2023-04-20T06:12:20;97292.88;;;17.05;74.55
21869;BME280;11099;41.564;23.296;2023-04-20T06:14:45;97282.13;;;17.44;73.89
21869;BME280;11099;41.564;23.296;2023-04-20T06:17:11;97354.69;;;17.60;74.13
21869;BME280;11099;41.564;23.296;2023-04-20T06:19:36;97283.03;;;17.52;72.83
21869;BME280;11099;41.564;23.296;2023-04-20T06:22:10;97296.69;;;17.62;72.56
21869;BME280;11099;41.564;23.296;2023-04-20T06:24:36;97317.88;;;17.64;71.89
21869;BME280;11099;41.564;23.296;2023-04-20T06:27:03;97329.81;;;18.55;68.17
21869;BME280;11099;41.564;23.296;2023-04-20T06:29:28;97287.22;;;17.49;70.91
21869;BME280;11099;41.564;23.296;2023-04-20T06:31:54;97337.06;;;17.62;70.66
21869;BME280;11099;41.564;23.296;2023-04-20T06:34:20;97211.81;;;16.49;72.68
21869;BME280;11099;41.564;23.296;2023-04-20T06:36:45;97235.53;;;15.80;78.28
21869;BME280;11099;41.564;23.296;2023-04-20T06:39:11;97339.03;;;16.09;79.30
21869;BME280;11099;41.564;23.296;2023-04-20T06:41:37;97290.31;;;15.63;81.18
21869;BME280;11099;41.564;23.296;2023-04-20T06:44:03;97311.34;;;16.05;77.94
21869;BME280;11099;41.564;23.296;2023-04-20T06:46:29;97257.63;;;15.89;78.15
21869;BME280;11099;41.564;23.296;2023-04-20T06:48:55;97286.84;;;16.42;75.06
21869;BME280;11099;41.564;23.296;2023-04-20T06:51:21;97290.66;;;16.72;75.51
21869;BME280;11099;41.564;23.296;2023-04-20T06:53:46;97261.97;;;16.60;72.05
21869;BME280;11099;41.564;23.296;2023-04-20T06:56:11;97306.81;;;16.92;71.93
21869;BME280;11099;41.564;23.296;2023-04-20T06:58:37;97198.94;;;16.93;70.45
21869;BME280;11099;41.564;23.296;2023-04-20T07:01:03;97341.66;;;18.50;67.69
21869;BME280;11099;41.564;23.296;2023-04-20T07:03:28;97283.91;;;18.02;67.05
21869;BME280;11099;41.564;23.296;2023-04-20T07:05:54;97239.53;;;17.92;65.53
21869;BME280;11099;41.564;23.296;2023-04-20T07:08:19;97295.94;;;17.85;65.59
21869;BME280;11099;41.564;23.296;2023-04-20T07:10:45;97343.72;;;17.88;69.68
21869;BME280;11099;41.564;23.296;2023-04-20T07:13:10;97327.06;;;17.63;70.95
21869;BME280;11099;41.564;23.296;2023-04-20T07:15:36;97318.91;;;17.79;67.02
21869;BME280;11099;41.564;23.296;2023-04-20T07:18:01;97250.28;;;17.07;68.04
21869;BME280;11099;41.564;23.296;2023-04-20T07:20:27;97339.81;;;17.85;69.92
21869;BME280;11099;41.564;23.296;2023-04-20T07:22:52;97294.22;;;17.96;66.81
21869;BME280;11099;41.564;23.296;2023-04-20T07:25:18;97338.47;;;18.41;67.90
21869;BME280;11099;41.564;23.296;2023-04-20T07:27:44;97327.38;;;18.23;67.25
21869;BME280;11099;41.564;23.296;2023-04-20T07:30:09;97336.88;;;18.40;68.39
21869;BME280;11099;41.564;23.296;2023-04-20T07:32:36;97317.38;;;18.47;65.64
21869;BME280;11099;41.564;23.296;2023-04-20T07:35:03;97330.84;;;18.01;68.26
21869;BME280;11099;41.564;23.296;2023-04-20T07:37:28;97314.69;;;18.47;66.20
21869;BME280;11099;41.564;23.296;2023-04-20T07:39:55;97245.03;;;17.99;66.79
21869;BME280;11099;41.564;23.296;2023-04-20T07:42:21;97228.16;;;18.55;65.20
21869;BME280;11099;41.564;23.296;2023-04-20T07:44:46;97273.81;;;17.95;63.88
21869;BME280;11099;41.564;23.296;2023-04-20T07:47:12;97250.28;;;18.15;65.33
21869;BME280;11099;41.564;23.296;2023-04-20T07:49:38;97276.97;;;18.50;60.42
21869;BME280;11099;41.564;23.296;2023-04-20T07:52:05;97316.31;;;18.05;62.73
21869;BME280;11099;41.564;23.296;2023-04-20T07:54:31;97251.25;;;18.56;58.90
21869;BME280;11099;41.564;23.296;2023-04-20T07:56:57;97252.00;;;18.80;60.18
21869;BME280;11099;41.564;23.296;2023-04-20T07:59:23;97179.75;;;16.95;58.27
21869;BME280;11099;41.564;23.296;2023-04-20T08:01:48;97237.75;;;17.77;57.02
21869;BME280;11099;41.564;23.296;2023-04-20T08:04:15;97236.84;;;18.41;54.57
21869;BME280;11099;41.564;23.296;2023-04-20T08:06:40;97210.50;;;17.59;54.34
21869;BME280;11099;41.564;23.296;2023-04-20T08:09:06;97272.50;;;18.08;53.19
21869;BME280;11099;41.564;23.296;2023-04-20T08:11:32;97217.66;;;17.51;54.47
21869;BME280;11099;41.564;23.296;2023-04-20T08:13:58;97208.78;;;17.93;52.97
21869;BME280;11099;41.564;23.296;2023-04-20T08:16:23;97218.56;;;18.05;51.37
21869;BME280;11099;41.564;23.296;2023-04-20T08:18:49;97194.41;;;18.08;52.08
21869;BME280;11099;41.564;23.296;2023-04-20T08:21:15;97251.69;;;18.32;52.41
21869;BME280;11099;41.564;23.296;2023-04-20T08:23:41;97242.16;;;18.38;51.38
21869;BME280;11099;41.564;23.296;2023-04-20T08:26:06;97261.97;;;18.00;51.19
21869;BME280;11099;41.564;23.296;2023-04-20T08:28:32;97196.50;;;18.22;49.93
21869;BME280;11099;41.564;23.296;2023-04-20T08:30:58;97231.91;;;18.74;48.22
21869;BME280;11099;41.564;23.296;2023-04-20T08:33:23;97190.31;;;18.75;49.24
21869;BME280;11099;41.564;23.296;2023-04-20T08:35:50;97228.84;;;19.09;48.36
21869;BME280;11099;41.564;23.296;2023-04-20T08:38:16;97156.75;;;18.72;47.17
21869;BME280;11099;41.564;23.296;2023-04-20T08:40:42;97179.16;;;18.20;48.52
21869;BME280;11099;41.564;23.296;2023-04-20T08:43:08;97191.19;;;18.56;49.29
21869;BME280;11099;41.564;23.296;2023-04-20T08:45:34;97154.81;;;18.12;48.96
21869;BME280;11099;41.564;23.296;2023-04-20T08:48:09;97147.91;;;18.41;47.84
21869;BME280;11099;41.564;23.296;2023-04-20T08:50:35;97205.72;;;18.74;46.86
21869;BME280;11099;41.564;23.296;2023-04-20T08:53:03;97179.72;;;18.92;47.43
21869;BME280;11099;41.564;23.296;2023-04-20T08:55:28;97206.28;;;19.24;47.90
21869;BME280;11099;41.564;23.296;2023-04-20T08:57:54;97176.78;;;19.05;46.33
21869;BME280;11099;41.564;23.296;2023-04-20T09:00:19;97083.50;;;18.03;47.90
21869;BME280;11099;41.564;23.296;2023-04-20T09:02:53;97130.41;;;18.92;47.74
21869;BME280;11099;41.564;23.296;2023-04-20T09:05:29;97213.31;;;19.69;45.57
21869;BME280;11099;41.564;23.296;2023-04-20T09:07:56;97123.13;;;18.32;46.05
21869;BME280;11099;41.564;23.296;2023-04-20T09:10:23;97094.44;;;17.37;45.53
21869;BME280;11099;41.564;23.296;2023-04-20T09:12:49;97089.91;;;17.42;46.82
21869;BME280;11099;41.564;23.296;2023-04-20T09:15:28;97224.22;;;17.73;47.50
21869;BME280;11099;41.564;23.296;2023-04-20T09:17:54;97194.38;;;18.35;44.78
21869;BME280;11099;41.564;23.296;2023-04-20T09:20:30;97213.69;;;18.97;44.77
21869;BME280;11099;41.564;23.296;2023-04-20T09:22:56;97126.44;;;18.82;44.82
21869;BME280;11099;41.564;23.296;2023-04-20T09:25:23;97194.63;;;19.54;44.26
21869;BME280;11099;41.564;23.296;2023-04-20T09:27:58;97222.44;;;19.58;44.57
21869;BME280;11099;41.564;23.296;2023-04-20T09:30:38;97169.63;;;19.60;43.83
21869;BME280;11099;41.564;23.296;2023-04-20T09:33:05;97207.31;;;19.90;41.62
21869;BME280;11099;41.564;23.296;2023-04-20T09:35:33;97193.56;;;19.62;42.45
21869;BME280;11099;41.564;23.296;2023-04-20T09:37:59;97160.78;;;19.63;42.14
21869;BME280;11099;41.564;23.296;2023-04-20T09:40:24;97152.47;;;19.86;42.19
21869;BME280;11099;41.564;23.296;2023-04-20T09:42:52;97200.41;;;19.96;42.50
21869;BME280;11099;41.564;23.296;2023-04-20T09:45:19;97164.91;;;19.98;41.91
21869;BME280;11099;41.564;23.296;2023-04-20T09:47:46;97094.59;;;19.36;43.28
21869;BME280;11099;41.564;23.296;2023-04-20T09:50:12;97211.59;;;19.95;43.55
21869;BME280;11099;41.564;23.296;2023-04-20T09:52:38;97163.75;;;19.95;42.03
21869;BME280;11099;41.564;23.296;2023-04-20T09:55:05;97189.94;;;19.91;43.84
21869;BME280;11099;41.564;23.296;2023-04-20T09:57:33;97206.84;;;19.44;43.48
21869;BME280;11099;41.564;23.296;2023-04-20T10:00:01;97212.28;;;19.88;42.91
21869;BME280;11099;41.564;23.296;2023-04-20T10:02:26;97148.53;;;19.73;43.31
21869;BME280;11099;41.564;23.296;2023-04-20T10:04:56;97200.50;;;20.07;44.11
21869;BME280;11099;41.564;23.296;2023-04-20T10:07:23;97202.63;;;20.39;42.71
21869;BME280;11099;41.564;23.296;2023-04-20T10:10:10;97156.78;;;20.60;42.47
21869;BME280;11099;41.564;23.296;2023-04-20T10:12:49;97120.00;;;20.45;42.77
21869;BME280;11099;41.564;23.296;2023-04-20T10:15:16;97157.28;;;19.59;44.16
21869;BME280;11099;41.564;23.296;2023-04-20T10:17:42;97169.47;;;19.87;41.70
21869;BME280;11099;41.564;23.296;2023-04-20T10:20:23;97158.38;;;20.68;41.92
21869;BME280;11099;41.564;23.296;2023-04-20T10:22:50;97131.41;;;20.93;42.44
21869;BME280;11099;41.564;23.296;2023-04-20T10:25:23;97115.69;;;20.30;43.45
21869;BME280;11099;41.564;23.296;2023-04-20T10:27:54;97131.09;;;20.22;43.18
21869;BME280;11099;41.564;23.296;2023-04-20T10:30:20;97122.84;;;20.73;42.72
21869;BME280;11099;41.564;23.296;2023-04-20T10:32:46;97183.47;;;20.69;39.75
21869;BME280;11099;41.564;23.296;2023-04-20T10:35:12;97180.94;;;20.28;37.94
21869;BME280;11099;41.564;23.296;2023-04-20T10:37:47;97171.56;;;20.84;38.89
21869;BME280;11099;41.564;23.296;2023-04-20T10:40:13;97083.69;;;20.39;38.92
21869;BME280;11099;41.564;23.296;2023-04-20T10:42:45;97187.78;;;20.77;39.35
21869;BME280;11099;41.564;23.296;2023-04-20T10:45:11;97157.25;;;20.07;40.76
21869;BME280;11099;41.564;23.296;2023-04-20T10:47:37;97191.66;;;20.14;40.42
21869;BME280;11099;41.564;23.296;2023-04-20T10:50:12;97191.41;;;20.37;40.38
21869;BME280;11099;41.564;23.296;2023-04-20T10:52:41;97030.31;;;19.56;40.06
21869;BME280;11099;41.564;23.296;2023-04-20T10:55:27;97178.06;;;20.69;38.96
21869;BME280;11099;41.564;23.296;2023-04-20T10:57:52;97151.63;;;20.37;39.84
21869;BME280;11099;41.564;23.296;2023-04-20T11:00:23;97150.16;;;19.44;42.11
21869;BME280;11099;41.564;23.296;2023-04-20T11:02:53;97132.53;;;19.54;42.05
21869;BME280;11099;41.564;23.296;2023-04-20T11:05:21;97141.28;;;19.40;42.43
21869;BME280;11099;41.564;23.296;2023-04-20T11:07:57;97097.81;;;19.52;41.74
21869;BME280;11099;41.564;23.296;2023-04-20T11:10:40;97164.47;;;19.92;41.81
21869;BME280;11099;41.564;23.296;2023-04-20T11:13:06;97129.63;;;19.77;40.61
21869;BME280;11099;41.564;23.296;2023-04-20T11:15:42;97150.84;;;19.30;42.24
21869;BME280;11099;41.564;23.296;2023-04-20T11:18:09;97192.16;;;19.79;42.32
21869;BME280;11099;41.564;23.296;2023-04-20T11:20:36;97113.84;;;18.90;41.21
21869;BME280;11099;41.564;23.296;2023-04-20T11:23:01;97095.16;;;18.40;41.75
21869;BME280;11099;41.564;23.296;2023-04-20T11:25:29;97144.81;;;18.43;41.53
21869;BME280;11099;41.564;23.296;2023-04-20T11:28:04;97188.13;;;19.21;42.67
21869;BME280;11099;41.564;23.296;2023-04-20T11:30:40;97162.13;;;19.02;43.99
21869;BME280;11099;41.564;23.296;2023-04-20T11:33:06;97200.84;;;18.87;44.13
21869;BME280;11099;41.564;23.296;2023-04-20T11:35:50;97178.78;;;18.78;45.04
21869;BME280;11099;41.564;23.296;2023-04-20T11:38:33;97189.66;;;19.18;45.15
21869;BME280;11099;41.564;23.296;2023-04-20T11:40:59;97155.00;;;18.87;45.12
21869;BME280;11099;41.564;23.296;2023-04-20T11:43:30;97067.50;;;18.13;46.42
21869;BME280;11099;41.564;23.296;2023-04-20T11:45:57;97072.75;;;18.06;46.83
21869;BME280;11099;41.564;23.296;2023-04-20T11:48:23;97185.94;;;18.97;46.12
21869;BME280;11099;41.564;23.296;2023-04-20T11:50:48;97063.25;;;18.46;46.28
21869;BME280;11099;41.564;23.296;2023-04-20T11:53:14;97173.47;;;19.18;46.19
21869;BME280;11099;41.564;23.296;2023-04-20T11:55:40;97122.19;;;18.48;46.62
21869;BME280;11099;41.564;23.296;2023-04-20T11:58:06;97041.31;;;18.14;46.96
21869;BME280;11099;41.564;23.296;2023-04-20T12:00:32;97124.81;;;18.44;46.68
21869;BME280;11099;41.564;23.296;2023-04-20T12:02:58;97107.06;;;18.69;46.30
21869;BME280;11099;41.564;23.296;2023-04-20T12:05:26;97174.03;;;18.67;47.02
21869;BME280;11099;41.564;23.296;2023-04-20T12:07:51;97115.25;;;18.50;45.99
21869;BME280;11099;41.564;23.296;2023-04-20T12:10:17;97100.75;;;18.58;46.53
21869;BME280;11099;41.564;23.296;2023-04-20T12:12:42;97079.19;;;18.28;46.78
21869;BME280;11099;41.564;23.296;2023-04-20T12:15:08;97021.25;;;18.11;45.65
21869;BME280;11099;41.564;23.296;2023-04-20T12:17:34;97037.44;;;18.11;45.19
21869;BME280;11099;41.564;23.296;2023-04-20T12:19:59;97167.03;;;18.93;46.91
21869;BME280;11099;41.564;23.296;2023-04-20T12:22:25;97059.19;;;18.29;45.93
21869;BME280;11099;41.564;23.296;2023-04-20T12:24:50;97113.63;;;18.42;47.07
21869;BME280;11099;41.564;23.296;2023-04-20T12:27:16;97082.31;;;18.30;45.58
21869;BME280;11099;41.564;23.296;2023-04-20T12:29:41;97110.31;;;18.86;45.20
21869;BME280;11099;41.564;23.296;2023-04-20T12:32:07;97135.25;;;19.57;43.61
21869;BME280;11099;41.564;23.296;2023-04-20T12:34:32;97133.63;;;19.97;44.01
21869;BME280;11099;41.564;23.296;2023-04-20T12:36:58;97034.81;;;18.89;44.25
21869;BME280;11099;41.564;23.296;2023-04-20T12:39:23;97060.19;;;19.26;45.03
21869;BME280;11099;41.564;23.296;2023-04-20T12:41:49;97063.28;;;18.83;44.81
21869;BME280;11099;41.564;23.296;2023-04-20T12:44:14;97106.53;;;18.94;44.79
21869;BME280;11099;41.564;23.296;2023-04-20T12:46:40;97083.50;;;19.04;45.82
21869;BME280;11099;41.564;23.296;2023-04-20T12:49:06;97055.72;;;18.96;45.79